sensor_id;sensor_type;location;lat;lon;timestamp;temperature;humidity
84432;DHT22;74658;51.736;7.038;2023-12-20T00:03:15;7.1;
84432;DHT22;74658;51.736;7.038;2023-12-20T00:08:15;7.1;
84432;DHT22;74658;51.736;7.038;2023-12-20T00:13:16;7;
84432;DHT22;74658;51.736;7.038;2023-12-20T00:18:17;7;
84432;DHT22;74658;51.736;7.038;2023-12-20T00:23:17;7;
84432;DHT22;74658;51.736;7.038;2023-12-20T00:28:18;6.9;
84432;DHT22;74658;51.736;7.038;2023-12-20T00:33:18;6.9;
84432;DHT22;74658;51.736;7.038;2023-12-20T00:38:19;6.9;
84432;DHT22;74658;51.736;7.038;2023-12-20T00:43:19;6.9;
84432;DHT22;74658;51.736;7.038;2023-12-20T00:48:20;6.8;
84432;DHT22;74658;51.736;7.038;2023-12-20T00:53:21;6.7;
84432;DHT22;74658;51.736;7.038;2023-12-20T00:58:21;6.6;
84432;DHT22;74658;51.736;7.038;2023-12-20T01:03:22;6.4;
84432;DHT22;74658;51.736;7.038;2023-12-20T01:08:23;6.2;
84432;DHT22;74658;51.736;7.038;2023-12-20T01:13:23;6.1;
84432;DHT22;74658;51.736;7.038;2023-12-20T01:18:24;6.1;
84432;DHT22;74658;51.736;7.038;2023-12-20T01:23:24;5.9;
84432;DHT22;74658;51.736;7.038;2023-12-20T01:28:28;5.8;
84432;DHT22;74658;51.736;7.038;2023-12-20T01:33:27;5.9;
84432;DHT22;74658;51.736;7.038;2023-12-20T01:38:27;5.9;
84432;DHT22;74658;51.736;7.038;2023-12-20T01:43:29;5.9;
84432;DHT22;74658;51.736;7.038;2023-12-20T01:48:29;5.9;
84432;DHT22;74658;51.736;7.038;2023-12-20T01:53:29;5.9;
84432;DHT22;74658;51.736;7.038;2023-12-20T01:58:30;6;
84432;DHT22;74658;51.736;7.038;2023-12-20T02:03:31;6;
84432;DHT22;74658;51.736;7.038;2023-12-20T02:08:32;5.9;
84432;DHT22;74658;51.736;7.038;2023-12-20T02:13:33;5.7;
84432;DHT22;74658;51.736;7.038;2023-12-20T02:18:33;5.7;
84432;DHT22;74658;51.736;7.038;2023-12-20T02:23:34;5.5;
84432;DHT22;74658;51.736;7.038;2023-12-20T02:28:35;5.5;
84432;DHT22;74658;51.736;7.038;2023-12-20T02:33:35;5.4;
84432;DHT22;74658;51.736;7.038;2023-12-20T02:38:36;5.3;
84432;DHT22;74658;51.736;7.038;2023-12-20T02:43:36;5.3;
84432;DHT22;74658;51.736;7.038;2023-12-20T02:48:37;5.3;
84432;DHT22;74658;51.736;7.038;2023-12-20T02:53:38;5.3;
84432;DHT22;74658;51.736;7.038;2023-12-20T02:58:38;5.3;
84432;DHT22;74658;51.736;7.038;2023-12-20T03:03:39;5.3;
84432;DHT22;74658;51.736;7.038;2023-12-20T03:08:40;5.3;
84432;DHT22;74658;51.736;7.038;2023-12-20T03:13:40;5.3;
84432;DHT22;74658;51.736;7.038;2023-12-20T03:18:41;5.3;
84432;DHT22;74658;51.736;7.038;2023-12-20T03:23:41;5.3;
84432;DHT22;74658;51.736;7.038;2023-12-20T03:28:52;5.3;
84432;DHT22;74658;51.736;7.038;2023-12-20T03:33:43;5.4;
84432;DHT22;74658;51.736;7.038;2023-12-20T03:38:43;5.3;
84432;DHT22;74658;51.736;7.038;2023-12-20T03:43:44;5.3;
84432;DHT22;74658;51.736;7.038;2023-12-20T03:48:45;5.2;
84432;DHT22;74658;51.736;7.038;2023-12-20T03:53:45;5.1;
84432;DHT22;74658;51.736;7.038;2023-12-20T03:58:46;5.1;
84432;DHT22;74658;51.736;7.038;2023-12-20T04:03:47;5.1;
84432;DHT22;74658;51.736;7.038;2023-12-20T04:08:47;5.1;
84432;DHT22;74658;51.736;7.038;2023-12-20T04:13:48;5;
84432;DHT22;74658;51.736;7.038;2023-12-20T04:18:48;5.1;
84432;DHT22;74658;51.736;7.038;2023-12-20T04:23:49;5.2;
84432;DHT22;74658;51.736;7.038;2023-12-20T04:28:49;5.2;
84432;DHT22;74658;51.736;7.038;2023-12-20T04:33:50;5.2;
84432;DHT22;74658;51.736;7.038;2023-12-20T04:38:51;5.2;
84432;DHT22;74658;51.736;7.038;2023-12-20T04:43:51;5.2;
84432;DHT22;74658;51.736;7.038;2023-12-20T04:48:52;5.1;
84432;DHT22;74658;51.736;7.038;2023-12-20T04:53:52;5.1;
84432;DHT22;74658;51.736;7.038;2023-12-20T04:58:53;5.1;
84432;DHT22;74658;51.736;7.038;2023-12-20T05:03:54;5.1;
84432;DHT22;74658;51.736;7.038;2023-12-20T05:08:54;5.2;
84432;DHT22;74658;51.736;7.038;2023-12-20T05:13:56;5.2;
84432;DHT22;74658;51.736;7.038;2023-12-20T05:18:55;5.2;
84432;DHT22;74658;51.736;7.038;2023-12-20T05:23:56;5.2;
84432;DHT22;74658;51.736;7.038;2023-12-20T05:28:57;5.3;
84432;DHT22;74658;51.736;7.038;2023-12-20T05:33:57;5.3;
84432;DHT22;74658;51.736;7.038;2023-12-20T05:38:58;5.3;
84432;DHT22;74658;51.736;7.038;2023-12-20T05:43:59;5.3;
84432;DHT22;74658;51.736;7.038;2023-12-20T05:48:59;5.4;
84432;DHT22;74658;51.736;7.038;2023-12-20T05:54:00;5.4;
84432;DHT22;74658;51.736;7.038;2023-12-20T05:59:00;5.4;
84432;DHT22;74658;51.736;7.038;2023-12-20T06:04:01;5.4;
84432;DHT22;74658;51.736;7.038;2023-12-20T06:09:02;5.5;
84432;DHT22;74658;51.736;7.038;2023-12-20T06:14:02;5.5;
84432;DHT22;74658;51.736;7.038;2023-12-20T06:19:03;5.5;
84432;DHT22;74658;51.736;7.038;2023-12-20T06:24:04;5.6;
84432;DHT22;74658;51.736;7.038;2023-12-20T06:29:04;5.6;
84432;DHT22;74658;51.736;7.038;2023-12-20T06:34:05;5.6;
84432;DHT22;74658;51.736;7.038;2023-12-20T06:39:05;5.7;
84432;DHT22;74658;51.736;7.038;2023-12-20T06:44:06;5.7;
84432;DHT22;74658;51.736;7.038;2023-12-20T06:49:06;5.7;
84432;DHT22;74658;51.736;7.038;2023-12-20T06:54:07;5.7;
84432;DHT22;74658;51.736;7.038;2023-12-20T06:59:08;5.8;
84432;DHT22;74658;51.736;7.038;2023-12-20T07:04:08;5.8;
84432;DHT22;74658;51.736;7.038;2023-12-20T07:09:09;5.8;
84432;DHT22;74658;51.736;7.038;2023-12-20T07:14:10;5.8;
84432;DHT22;74658;51.736;7.038;2023-12-20T07:19:10;5.9;
84432;DHT22;74658;51.736;7.038;2023-12-20T07:24:11;5.9;
84432;DHT22;74658;51.736;7.038;2023-12-20T07:29:11;5.9;
84432;DHT22;74658;51.736;7.038;2023-12-20T07:34:12;6;
84432;DHT22;74658;51.736;7.038;2023-12-20T07:39:13;6;
84432;DHT22;74658;51.736;7.038;2023-12-20T07:44:13;6;
84432;DHT22;74658;51.736;7.038;2023-12-20T07:49:14;6.1;
84432;DHT22;74658;51.736;7.038;2023-12-20T07:54:14;6.1;
84432;DHT22;74658;51.736;7.038;2023-12-20T07:59:15;6.1;
84432;DHT22;74658;51.736;7.038;2023-12-20T08:04:16;6.1;
84432;DHT22;74658;51.736;7.038;2023-12-20T08:09:16;6.2;
84432;DHT22;74658;51.736;7.038;2023-12-20T08:14:17;6.2;
84432;DHT22;74658;51.736;7.038;2023-12-20T08:19:18;6.2;
84432;DHT22;74658;51.736;7.038;2023-12-20T08:24:18;6.3;
84432;DHT22;74658;51.736;7.038;2023-12-20T08:29:19;6.3;
84432;DHT22;74658;51.736;7.038;2023-12-20T08:34:19;6.3;
84432;DHT22;74658;51.736;7.038;2023-12-20T08:39:20;6.4;
84432;DHT22;74658;51.736;7.038;2023-12-20T08:44:21;6.4;
84432;DHT22;74658;51.736;7.038;2023-12-20T08:49:21;6.4;
84432;DHT22;74658;51.736;7.038;2023-12-20T08:54:22;6.4;
84432;DHT22;74658;51.736;7.038;2023-12-20T08:59:22;6.4;
84432;DHT22;74658;51.736;7.038;2023-12-20T09:04:23;6.5;
84432;DHT22;74658;51.736;7.038;2023-12-20T09:09:24;6.5;
84432;DHT22;74658;51.736;7.038;2023-12-20T09:14:29;6.5;
84432;DHT22;74658;51.736;7.038;2023-12-20T09:19:25;6.5;
84432;DHT22;74658;51.736;7.038;2023-12-20T09:24:25;6.5;
84432;DHT22;74658;51.736;7.038;2023-12-20T09:29:26;6.5;
84432;DHT22;74658;51.736;7.038;2023-12-20T09:34:26;6.6;
84432;DHT22;74658;51.736;7.038;2023-12-20T09:39:27;6.6;
84432;DHT22;74658;51.736;7.038;2023-12-20T09:44:28;6.6;
84432;DHT22;74658;51.736;7.038;2023-12-20T09:49:29;6.6;
84432;DHT22;74658;51.736;7.038;2023-12-20T09:54:29;6.7;
84432;DHT22;74658;51.736;7.038;2023-12-20T09:59:29;6.6;
84432;DHT22;74658;51.736;7.038;2023-12-20T10:04:32;6.5;
84432;DHT22;74658;51.736;7.038;2023-12-20T10:09:31;6.5;
84432;DHT22;74658;51.736;7.038;2023-12-20T10:14:32;6.4;
84432;DHT22;74658;51.736;7.038;2023-12-20T10:19:32;6.4;
84432;DHT22;74658;51.736;7.038;2023-12-20T10:24:32;6.4;
84432;DHT22;74658;51.736;7.038;2023-12-20T10:29:33;6.4;
84432;DHT22;74658;51.736;7.038;2023-12-20T10:34:34;6.4;
84432;DHT22;74658;51.736;7.038;2023-12-20T10:39:34;6.4;
84432;DHT22;74658;51.736;7.038;2023-12-20T10:44:35;6.4;
84432;DHT22;74658;51.736;7.038;2023-12-20T10:49:36;6.4;
84432;DHT22;74658;51.736;7.038;2023-12-20T10:54:36;6.4;
84432;DHT22;74658;51.736;7.038;2023-12-20T10:59:37;6.5;
84432;DHT22;74658;51.736;7.038;2023-12-20T11:04:44;6.6;
84432;DHT22;74658;51.736;7.038;2023-12-20T11:09:41;6.6;
84432;DHT22;74658;51.736;7.038;2023-12-20T11:14:41;6.7;
84432;DHT22;74658;51.736;7.038;2023-12-20T11:20:03;6.7;
84432;DHT22;74658;51.736;7.038;2023-12-20T11:24:44;6.7;
84432;DHT22;74658;51.736;7.038;2023-12-20T11:29:40;6.7;
84432;DHT22;74658;51.736;7.038;2023-12-20T11:34:41;6.6;
84432;DHT22;74658;51.736;7.038;2023-12-20T11:39:43;6.7;
84432;DHT22;74658;51.736;7.038;2023-12-20T11:44:42;6.7;
84432;DHT22;74658;51.736;7.038;2023-12-20T11:49:43;6.8;
84432;DHT22;74658;51.736;7.038;2023-12-20T11:54:43;6.8;
84432;DHT22;74658;51.736;7.038;2023-12-20T11:59:44;6.8;
84432;DHT22;74658;51.736;7.038;2023-12-20T12:04:45;6.8;
84432;DHT22;74658;51.736;7.038;2023-12-20T12:09:45;6.7;
84432;DHT22;74658;51.736;7.038;2023-12-20T12:14:46;6.7;
84432;DHT22;74658;51.736;7.038;2023-12-20T12:19:46;6.8;
84432;DHT22;74658;51.736;7.038;2023-12-20T12:24:47;7.1;
84432;DHT22;74658;51.736;7.038;2023-12-20T12:30:00;7.1;
84432;DHT22;74658;51.736;7.038;2023-12-20T12:34:48;7.2;
84432;DHT22;74658;51.736;7.038;2023-12-20T12:39:49;7.2;
84432;DHT22;74658;51.736;7.038;2023-12-20T12:44:49;7.2;
84432;DHT22;74658;51.736;7.038;2023-12-20T12:49:51;7.1;
84432;DHT22;74658;51.736;7.038;2023-12-20T12:54:51;7.4;
84432;DHT22;74658;51.736;7.038;2023-12-20T12:59:51;7.3;
84432;DHT22;74658;51.736;7.038;2023-12-20T13:04:52;7.3;
84432;DHT22;74658;51.736;7.038;2023-12-20T13:09:52;7.2;
84432;DHT22;74658;51.736;7.038;2023-12-20T13:14:53;7.3;
84432;DHT22;74658;51.736;7.038;2023-12-20T13:19:54;7.3;
84432;DHT22;74658;51.736;7.038;2023-12-20T13:24:54;7.4;
84432;DHT22;74658;51.736;7.038;2023-12-20T13:29:55;7.4;
84432;DHT22;74658;51.736;7.038;2023-12-20T13:34:56;7.4;
84432;DHT22;74658;51.736;7.038;2023-12-20T13:39:56;7.3;
84432;DHT22;74658;51.736;7.038;2023-12-20T13:44:57;7.3;
84432;DHT22;74658;51.736;7.038;2023-12-20T13:49:57;7.4;
84432;DHT22;74658;51.736;7.038;2023-12-20T13:55:09;7.3;
84432;DHT22;74658;51.736;7.038;2023-12-20T13:59:59;7.3;
84432;DHT22;74658;51.736;7.038;2023-12-20T14:04:59;7.2;
84432;DHT22;74658;51.736;7.038;2023-12-20T14:10:00;7.2;
84432;DHT22;74658;51.736;7.038;2023-12-20T14:15:01;7.1;
84432;DHT22;74658;51.736;7.038;2023-12-20T14:20:01;7.1;
84432;DHT22;74658;51.736;7.038;2023-12-20T14:25:02;7;
84432;DHT22;74658;51.736;7.038;2023-12-20T14:30:03;7;
84432;DHT22;74658;51.736;7.038;2023-12-20T14:35:04;7;
84432;DHT22;74658;51.736;7.038;2023-12-20T14:35:04;7;
84432;DHT22;74658;51.736;7.038;2023-12-20T14:40:05;7;
84432;DHT22;74658;51.736;7.038;2023-12-20T14:45:05;7;
84432;DHT22;74658;51.736;7.038;2023-12-20T14:50:06;7;
84432;DHT22;74658;51.736;7.038;2023-12-20T14:55:06;7;
84432;DHT22;74658;51.736;7.038;2023-12-20T15:00:07;7;
84432;DHT22;74658;51.736;7.038;2023-12-20T15:05:07;7;
84432;DHT22;74658;51.736;7.038;2023-12-20T15:10:08;7;
84432;DHT22;74658;51.736;7.038;2023-12-20T15:15:09;7;
84432;DHT22;74658;51.736;7.038;2023-12-20T15:20:09;7;
84432;DHT22;74658;51.736;7.038;2023-12-20T15:25:10;7;
84432;DHT22;74658;51.736;7.038;2023-12-20T15:30:10;7;
84432;DHT22;74658;51.736;7.038;2023-12-20T15:35:10;7;
84432;DHT22;74658;51.736;7.038;2023-12-20T15:40:11;7;
84432;DHT22;74658;51.736;7.038;2023-12-20T15:45:11;7;
84432;DHT22;74658;51.736;7.038;2023-12-20T15:50:12;7;
84432;DHT22;74658;51.736;7.038;2023-12-20T15:55:12;7;
84432;DHT22;74658;51.736;7.038;2023-12-20T16:00:14;7.1;
84432;DHT22;74658;51.736;7.038;2023-12-20T16:05:14;7.1;
84432;DHT22;74658;51.736;7.038;2023-12-20T16:10:14;7.1;
84432;DHT22;74658;51.736;7.038;2023-12-20T16:15:15;7.2;
84432;DHT22;74658;51.736;7.038;2023-12-20T16:20:15;7.2;
84432;DHT22;74658;51.736;7.038;2023-12-20T16:25:16;7.1;
84432;DHT22;74658;51.736;7.038;2023-12-20T16:30:17;7.1;
84432;DHT22;74658;51.736;7.038;2023-12-20T16:35:17;7.2;
84432;DHT22;74658;51.736;7.038;2023-12-20T16:40:18;7.2;
84432;DHT22;74658;51.736;7.038;2023-12-20T16:45:18;7.2;
84432;DHT22;74658;51.736;7.038;2023-12-20T16:50:19;7.2;
84432;DHT22;74658;51.736;7.038;2023-12-20T16:55:20;7.2;
84432;DHT22;74658;51.736;7.038;2023-12-20T17:00:20;7.2;
84432;DHT22;74658;51.736;7.038;2023-12-20T17:05:21;7.1;
84432;DHT22;74658;51.736;7.038;2023-12-20T17:10:22;7.1;
84432;DHT22;74658;51.736;7.038;2023-12-20T17:15:22;7.1;
84432;DHT22;74658;51.736;7.038;2023-12-20T17:20:23;7.1;
84432;DHT22;74658;51.736;7.038;2023-12-20T17:25:23;7.1;
84432;DHT22;74658;51.736;7.038;2023-12-20T17:30:24;7.1;
84432;DHT22;74658;51.736;7.038;2023-12-20T17:35:24;7.1;
84432;DHT22;74658;51.736;7.038;2023-12-20T17:40:25;7.1;
84432;DHT22;74658;51.736;7.038;2023-12-20T17:45:26;7.1;
84432;DHT22;74658;51.736;7.038;2023-12-20T17:50:26;7.1;
84432;DHT22;74658;51.736;7.038;2023-12-20T17:55:28;7.1;
84432;DHT22;74658;51.736;7.038;2023-12-20T18:00:31;7.1;
84432;DHT22;74658;51.736;7.038;2023-12-20T18:05:28;7.1;
84432;DHT22;74658;51.736;7.038;2023-12-20T18:10:29;7.1;
84432;DHT22;74658;51.736;7.038;2023-12-20T18:15:29;7.2;
84432;DHT22;74658;51.736;7.038;2023-12-20T18:20:30;7.1;
84432;DHT22;74658;51.736;7.038;2023-12-20T18:25:31;7.2;
84432;DHT22;74658;51.736;7.038;2023-12-20T18:30:31;7.2;
84432;DHT22;74658;51.736;7.038;2023-12-20T18:35:32;7.2;
84432;DHT22;74658;51.736;7.038;2023-12-20T18:40:32;7.2;
84432;DHT22;74658;51.736;7.038;2023-12-20T18:45:33;7.2;
84432;DHT22;74658;51.736;7.038;2023-12-20T18:50:33;7.2;
84432;DHT22;74658;51.736;7.038;2023-12-20T18:55:34;7.1;
84432;DHT22;74658;51.736;7.038;2023-12-20T19:00:35;7.1;
84432;DHT22;74658;51.736;7.038;2023-12-20T19:05:36;7.1;
84432;DHT22;74658;51.736;7.038;2023-12-20T19:10:36;7.1;
84432;DHT22;74658;51.736;7.038;2023-12-20T19:15:37;7.1;
84432;DHT22;74658;51.736;7.038;2023-12-20T19:20:37;7.2;
84432;DHT22;74658;51.736;7.038;2023-12-20T19:25:38;7.2;
84432;DHT22;74658;51.736;7.038;2023-12-20T19:30:39;7.2;
84432;DHT22;74658;51.736;7.038;2023-12-20T19:35:39;7.2;
84432;DHT22;74658;51.736;7.038;2023-12-20T19:40:40;7.3;
84432;DHT22;74658;51.736;7.038;2023-12-20T19:45:40;7.3;
84432;DHT22;74658;51.736;7.038;2023-12-20T19:50:41;7.3;
84432;DHT22;74658;51.736;7.038;2023-12-20T19:55:41;7.3;
84432;DHT22;74658;51.736;7.038;2023-12-20T20:00:42;7.3;
84432;DHT22;74658;51.736;7.038;2023-12-20T20:05:43;7.4;
84432;DHT22;74658;51.736;7.038;2023-12-20T20:10:43;7.4;
84432;DHT22;74658;51.736;7.038;2023-12-20T20:15:44;7.4;
84432;DHT22;74658;51.736;7.038;2023-12-20T20:20:45;7.4;
84432;DHT22;74658;51.736;7.038;2023-12-20T20:25:45;7.4;
84432;DHT22;74658;51.736;7.038;2023-12-20T20:30:46;7.5;
84432;DHT22;74658;51.736;7.038;2023-12-20T20:35:46;7.5;
84432;DHT22;74658;51.736;7.038;2023-12-20T20:40:47;7.5;
84432;DHT22;74658;51.736;7.038;2023-12-20T20:45:48;7.5;
84432;DHT22;74658;51.736;7.038;2023-12-20T20:50:48;7.6;
84432;DHT22;74658;51.736;7.038;2023-12-20T20:55:49;7.6;
84432;DHT22;74658;51.736;7.038;2023-12-20T21:00:49;7.6;
84432;DHT22;74658;51.736;7.038;2023-12-20T21:05:50;7.6;
84432;DHT22;74658;51.736;7.038;2023-12-20T21:10:51;7.6;
84432;DHT22;74658;51.736;7.038;2023-12-20T21:15:57;7.6;
84432;DHT22;74658;51.736;7.038;2023-12-20T21:20:52;7.6;
84432;DHT22;74658;51.736;7.038;2023-12-20T21:25:53;7.6;
84432;DHT22;74658;51.736;7.038;2023-12-20T21:30:53;7.7;
84432;DHT22;74658;51.736;7.038;2023-12-20T21:35:54;7.7;
84432;DHT22;74658;51.736;7.038;2023-12-20T21:40:54;7.7;
84432;DHT22;74658;51.736;7.038;2023-12-20T21:45:55;7.7;
84432;DHT22;74658;51.736;7.038;2023-12-20T21:51:06;7.7;
84432;DHT22;74658;51.736;7.038;2023-12-20T21:55:56;7.7;
84432;DHT22;74658;51.736;7.038;2023-12-20T22:00:57;7.8;
84432;DHT22;74658;51.736;7.038;2023-12-20T22:05:58;7.8;
84432;DHT22;74658;51.736;7.038;2023-12-20T22:10:59;7.8;
84432;DHT22;74658;51.736;7.038;2023-12-20T22:15:59;7.8;
84432;DHT22;74658;51.736;7.038;2023-12-20T22:21:00;7.8;
84432;DHT22;74658;51.736;7.038;2023-12-20T22:26:00;7.8;
84432;DHT22;74658;51.736;7.038;2023-12-20T22:31:01;7.8;
84432;DHT22;74658;51.736;7.038;2023-12-20T22:36:01;7.8;
84432;DHT22;74658;51.736;7.038;2023-12-20T22:41:02;7.9;
84432;DHT22;74658;51.736;7.038;2023-12-20T22:46:03;7.9;
84432;DHT22;74658;51.736;7.038;2023-12-20T22:51:04;7.9;
84432;DHT22;74658;51.736;7.038;2023-12-20T22:56:05;7.9;
84432;DHT22;74658;51.736;7.038;2023-12-20T23:01:05;7.9;
84432;DHT22;74658;51.736;7.038;2023-12-20T23:06:05;8;
84432;DHT22;74658;51.736;7.038;2023-12-20T23:11:06;7.9;
84432;DHT22;74658;51.736;7.038;2023-12-20T23:16:07;8;
84432;DHT22;74658;51.736;7.038;2023-12-20T23:21:07;8;
84432;DHT22;74658;51.736;7.038;2023-12-20T23:26:07;8;
84432;DHT22;74658;51.736;7.038;2023-12-20T23:31:08;8;
84432;DHT22;74658;51.736;7.038;2023-12-20T23:36:09;8;
84432;DHT22;74658;51.736;7.038;2023-12-20T23:41:09;8;
84432;DHT22;74658;51.736;7.038;2023-12-20T23:46:10;8.1;
84432;DHT22;74658;51.736;7.038;2023-12-20T23:51:11;8.1;
84432;DHT22;74658;51.736;7.038;2023-12-20T23:56:11;8.1;
